createdAt,value
2018-12-21T00:00:19.166Z,12.41
2018-12-21T00:02:47.266Z,12.41
2018-12-21T00:05:15.412Z,12.43
2018-12-21T00:07:43.484Z,12.44
2018-12-21T00:10:12.202Z,12.43
2018-12-21T00:12:40.264Z,12.44
2018-12-21T00:15:08.444Z,12.43
2018-12-21T00:17:36.527Z,12.45
2018-12-21T00:20:06.043Z,12.46
2018-12-21T00:22:34.518Z,12.47
2018-12-21T00:25:02.625Z,12.47
2018-12-21T00:27:30.715Z,12.47
2018-12-21T00:29:58.859Z,12.49
2018-12-21T00:32:32.426Z,12.48
2018-12-21T00:35:05.906Z,12.49
2018-12-21T00:37:39.391Z,12.49
2018-12-21T00:40:13.296Z,12.50
2018-12-21T00:42:47.095Z,12.49
2018-12-21T00:45:17.146Z,12.48
2018-12-21T00:47:45.232Z,12.49
2018-12-21T00:50:13.348Z,12.51
2018-12-21T00:52:41.417Z,12.49
2018-12-21T00:55:09.738Z,12.51
2018-12-21T00:57:37.794Z,12.49
2018-12-21T01:00:12.407Z,12.50
2018-12-21T01:02:40.511Z,12.49
2018-12-21T01:05:08.690Z,12.50
2018-12-21T01:07:36.746Z,12.52
2018-12-21T01:10:05.420Z,12.52
2018-12-21T01:12:34.763Z,12.50
2018-12-21T01:15:02.930Z,12.51
2018-12-21T01:17:31.018Z,12.53
2018-12-21T01:19:59.152Z,12.53
2018-12-21T01:22:27.252Z,12.52
2018-12-21T01:24:55.323Z,12.53
2018-12-21T01:27:23.387Z,12.54
2018-12-21T01:29:51.493Z,12.54
2018-12-21T01:32:19.614Z,12.55
2018-12-21T01:34:47.682Z,12.54
2018-12-21T01:37:15.766Z,12.55
2018-12-21T01:39:43.903Z,12.56
2018-12-21T01:42:11.957Z,12.53
2018-12-21T01:44:40.052Z,12.54
2018-12-21T01:47:08.106Z,12.54
2018-12-21T01:49:36.170Z,12.53
2018-12-21T01:52:04.267Z,12.52
2018-12-21T01:54:32.338Z,12.52
2018-12-21T01:57:00.473Z,12.53
2018-12-21T01:59:28.538Z,12.55
2018-12-21T02:01:56.826Z,12.57
2018-12-21T02:04:24.936Z,12.59
2018-12-21T02:06:53.062Z,12.59
2018-12-21T02:09:21.178Z,12.62
2018-12-21T02:11:49.320Z,12.64
2018-12-21T02:14:17.380Z,12.66
2018-12-21T02:16:45.478Z,12.70
2018-12-21T02:19:13.550Z,12.73
2018-12-21T02:21:41.691Z,12.75
2018-12-21T02:24:09.746Z,12.78
2018-12-21T02:26:37.838Z,12.82
2018-12-21T02:29:05.938Z,12.85
2018-12-21T02:31:34.074Z,12.86
2018-12-21T02:34:02.274Z,12.88
2018-12-21T02:36:30.330Z,12.87
2018-12-21T02:38:58.386Z,12.89
2018-12-21T02:41:26.454Z,12.90
2018-12-21T02:43:54.518Z,12.91
2018-12-21T02:46:22.705Z,12.92
2018-12-21T02:48:50.846Z,12.92
2018-12-21T02:51:18.911Z,12.92
2018-12-21T02:53:46.966Z,12.90
2018-12-21T02:56:15.062Z,12.91
2018-12-21T02:58:43.154Z,12.91
2018-12-21T03:01:12.184Z,12.91
2018-12-21T03:03:40.339Z,12.92
2018-12-21T03:06:08.398Z,12.92
2018-12-21T03:08:36.455Z,12.92
2018-12-21T03:11:04.528Z,12.92
2018-12-21T03:13:33.079Z,12.91
2018-12-21T03:16:01.291Z,12.93
2018-12-21T03:18:29.427Z,12.93
2018-12-21T03:20:57.503Z,12.97
2018-12-21T03:23:25.654Z,12.97
2018-12-21T03:25:53.851Z,13.01
2018-12-21T03:28:21.907Z,13.02
2018-12-21T03:30:49.976Z,13.05
2018-12-21T03:33:18.165Z,13.08
2018-12-21T03:35:46.343Z,13.09
2018-12-21T03:38:14.487Z,13.12
2018-12-21T03:40:42.557Z,13.14
2018-12-21T03:43:10.703Z,13.17
2018-12-21T03:45:38.927Z,13.17
2018-12-21T03:48:07.084Z,13.19
2018-12-21T03:50:35.197Z,13.22
2018-12-21T03:53:03.254Z,13.22
2018-12-21T03:55:31.326Z,13.24
2018-12-21T03:57:59.387Z,13.25
2018-12-21T04:00:27.486Z,13.25
2018-12-21T04:02:55.630Z,13.25
2018-12-21T04:05:23.826Z,13.23
2018-12-21T04:07:51.969Z,13.20
2018-12-21T04:10:20.062Z,13.20
2018-12-21T04:12:48.125Z,13.13
2018-12-21T04:15:16.246Z,13.08
2018-12-21T04:17:44.379Z,13.01
2018-12-21T04:20:12.647Z,12.97
2018-12-21T04:22:40.785Z,12.92
2018-12-21T04:25:08.987Z,12.90
2018-12-21T04:27:37.056Z,12.87
2018-12-21T04:30:08.361Z,12.84
2018-12-21T04:32:36.410Z,12.83
2018-12-21T04:35:04.890Z,12.80
2018-12-21T04:37:32.943Z,12.77
2018-12-21T04:40:01.104Z,12.76
2018-12-21T04:42:29.172Z,12.72
2018-12-21T04:44:57.349Z,12.68
2018-12-21T04:47:25.499Z,12.65
2018-12-21T04:49:53.642Z,12.61
2018-12-21T04:52:21.707Z,12.58
2018-12-21T04:54:49.775Z,12.55
2018-12-21T04:57:17.847Z,12.50
2018-12-21T04:59:45.926Z,12.51
2018-12-21T05:02:13.997Z,12.49
2018-12-21T05:04:42.069Z,12.48
2018-12-21T05:07:12.560Z,12.50
2018-12-21T05:09:40.534Z,12.49
2018-12-21T05:12:08.960Z,12.48
2018-12-21T05:14:37.212Z,12.49
2018-12-21T05:17:05.326Z,12.49
2018-12-21T05:19:33.383Z,12.49
2018-12-21T05:22:01.444Z,12.51
2018-12-21T05:24:29.529Z,12.51
2018-12-21T05:26:57.623Z,12.53
2018-12-21T05:29:25.687Z,12.54
2018-12-21T05:31:53.772Z,12.54
2018-12-21T05:34:21.810Z,12.59
2018-12-21T05:36:49.878Z,12.59
2018-12-21T05:39:17.939Z,12.62
2018-12-21T05:41:46.003Z,12.63
2018-12-21T05:44:14.057Z,12.63
2018-12-21T05:46:42.204Z,12.66
2018-12-21T05:49:10.259Z,12.69
2018-12-21T05:51:38.373Z,12.73
2018-12-21T05:54:06.437Z,12.74
2018-12-21T05:56:34.570Z,12.74
2018-12-21T05:59:02.683Z,12.76
2018-12-21T06:01:30.744Z,12.77
2018-12-21T06:03:58.813Z,12.77
2018-12-21T06:06:26.952Z,12.78
2018-12-21T06:08:55.080Z,12.78
2018-12-21T06:11:23.175Z,12.79
2018-12-21T06:13:51.272Z,12.81
2018-12-21T06:16:19.381Z,12.83
2018-12-21T06:18:48.005Z,12.83
2018-12-21T06:21:16.109Z,12.84
2018-12-21T06:23:44.182Z,12.85
2018-12-21T06:26:12.235Z,12.86
2018-12-21T06:28:40.340Z,12.87
2018-12-21T06:31:08.526Z,12.88
2018-12-21T06:33:36.620Z,12.89
2018-12-21T06:36:04.723Z,12.91
2018-12-21T06:38:32.875Z,12.94
2018-12-21T06:41:00.967Z,12.97
2018-12-21T06:43:29.065Z,12.98
2018-12-21T06:45:58.298Z,13.00
2018-12-21T06:48:26.403Z,13.02
2018-12-21T06:50:54.463Z,13.05
2018-12-21T06:53:22.613Z,13.06
2018-12-21T06:55:50.763Z,13.06
2018-12-21T06:58:18.810Z,13.09
2018-12-21T07:00:46.903Z,13.10
2018-12-21T07:03:17.254Z,13.11
2018-12-21T07:05:45.063Z,13.11
2018-12-21T07:08:13.135Z,13.12
2018-12-21T07:10:41.206Z,13.14
2018-12-21T07:13:09.276Z,13.15
2018-12-21T07:15:37.330Z,13.16
2018-12-21T07:18:05.407Z,13.17
2018-12-21T07:20:33.507Z,13.18
2018-12-21T07:23:01.594Z,13.19
2018-12-21T07:25:29.659Z,13.20
2018-12-21T07:27:57.767Z,13.22
2018-12-21T07:30:25.838Z,13.24
2018-12-21T07:32:54.314Z,13.27
2018-12-21T07:35:22.523Z,13.27
2018-12-21T07:37:50.704Z,13.31
2018-12-21T07:40:18.846Z,13.31
2018-12-21T07:42:46.898Z,13.34
2018-12-21T07:45:14.982Z,13.37
2018-12-21T07:47:43.055Z,13.38
2018-12-21T07:50:11.164Z,13.41
2018-12-21T07:52:39.784Z,13.43
2018-12-21T07:55:08.063Z,13.47
2018-12-21T07:57:36.124Z,13.48
2018-12-21T08:00:07.816Z,13.50
2018-12-21T08:02:35.942Z,13.49
2018-12-21T08:05:05.307Z,13.49
2018-12-21T08:07:33.364Z,13.51
2018-12-21T08:10:01.495Z,13.51
2018-12-21T08:12:29.639Z,13.54
2018-12-21T08:14:57.698Z,13.56
2018-12-21T08:17:25.783Z,13.59
2018-12-21T08:19:53.858Z,13.60
2018-12-21T08:22:22.035Z,13.64
2018-12-21T08:24:50.098Z,13.68
2018-12-21T08:27:18.196Z,13.70
2018-12-21T08:29:46.239Z,13.74
2018-12-21T08:32:14.398Z,13.79
2018-12-21T08:34:42.458Z,13.82
2018-12-21T08:37:10.530Z,13.84
2018-12-21T08:39:39.474Z,13.91
2018-12-21T08:42:07.578Z,13.95
2018-12-21T08:44:35.645Z,14.02
2018-12-21T08:47:03.766Z,14.07
2018-12-21T08:49:32.426Z,14.11
2018-12-21T08:52:00.589Z,14.14
2018-12-21T08:54:28.728Z,14.18
2018-12-21T08:56:56.832Z,14.19
2018-12-21T08:59:24.966Z,14.22
2018-12-21T09:01:53.039Z,14.26
2018-12-21T09:04:21.138Z,14.29
2018-12-21T09:06:49.246Z,14.33
2018-12-21T09:09:17.301Z,14.37
2018-12-21T09:11:45.499Z,14.41
2018-12-21T09:14:13.574Z,14.46
2018-12-21T09:16:42.239Z,14.51
2018-12-21T09:19:10.306Z,14.56
2018-12-21T09:21:38.378Z,14.63
2018-12-21T09:24:06.429Z,14.67
2018-12-21T09:26:34.491Z,14.69
2018-12-21T09:29:02.627Z,14.73
2018-12-21T09:31:30.698Z,14.76
2018-12-21T09:33:59.781Z,14.79
2018-12-21T09:36:27.999Z,14.83
2018-12-21T09:38:56.066Z,14.90
2018-12-21T09:41:24.170Z,14.94
2018-12-21T09:43:52.311Z,14.99
2018-12-21T09:46:20.382Z,15.07
2018-12-21T09:48:48.479Z,15.13
2018-12-21T09:51:16.542Z,15.19
2018-12-21T09:53:44.916Z,15.26
2018-12-21T09:56:12.992Z,15.31
2018-12-21T09:58:41.061Z,15.36
2018-12-21T10:01:09.131Z,15.40
2018-12-21T10:03:37.261Z,15.44
2018-12-21T10:06:05.331Z,15.48
2018-12-21T10:08:33.499Z,15.52
2018-12-21T10:11:01.582Z,15.57
2018-12-21T10:13:29.744Z,15.59
2018-12-21T10:15:58.288Z,15.63
2018-12-21T10:18:26.342Z,15.67
2018-12-21T10:20:54.503Z,15.71
2018-12-21T10:23:22.570Z,15.75
2018-12-21T10:25:50.623Z,15.80
2018-12-21T10:28:18.734Z,15.83
2018-12-21T10:30:46.970Z,15.87
2018-12-21T10:33:15.033Z,15.92
2018-12-21T10:35:43.092Z,15.97
2018-12-21T10:38:11.155Z,16.01
2018-12-21T10:40:39.219Z,16.04
2018-12-21T10:43:07.322Z,16.08
2018-12-21T10:45:41.606Z,16.13
2018-12-21T10:48:05.449Z,16.18
2018-12-21T10:50:33.534Z,16.22
2018-12-21T10:53:01.600Z,16.28
2018-12-21T10:55:30.196Z,16.33
2018-12-21T10:57:58.276Z,16.37
2018-12-21T11:00:26.463Z,16.40
2018-12-21T11:02:54.672Z,16.43
2018-12-21T11:05:23.658Z,16.45
2018-12-21T11:07:51.812Z,16.49
2018-12-21T11:10:19.901Z,16.54
2018-12-21T11:12:48.726Z,16.55
2018-12-21T11:15:16.814Z,16.58
2018-12-21T11:17:44.891Z,16.61
2018-12-21T11:20:13.085Z,16.63
2018-12-21T11:22:41.230Z,16.62
2018-12-21T11:25:11.109Z,16.64
2018-12-21T11:27:39.181Z,16.66
2018-12-21T11:30:09.069Z,16.69
2018-12-21T11:32:37.144Z,16.68
2018-12-21T11:35:06.296Z,16.70
2018-12-21T11:37:34.371Z,16.71
2018-12-21T11:40:04.392Z,16.74
2018-12-21T11:42:32.457Z,16.78
2018-12-21T11:45:00.514Z,16.81
2018-12-21T11:47:28.808Z,16.85
2018-12-21T11:49:57.045Z,16.86
2018-12-21T11:52:29.305Z,16.88
2018-12-21T11:54:59.137Z,16.88
2018-12-21T11:57:27.699Z,16.89
2018-12-21T11:59:56.704Z,16.93
2018-12-21T12:02:25.441Z,16.98
2018-12-21T12:04:53.773Z,16.99
2018-12-21T12:07:21.958Z,17.04
2018-12-21T12:09:51.512Z,17.06
2018-12-21T12:12:22.633Z,17.14
2018-12-21T12:14:50.771Z,17.19
2018-12-21T12:17:22.498Z,17.25
2018-12-21T12:19:58.787Z,17.30
2018-12-21T12:22:26.942Z,17.34
2018-12-21T12:24:55.544Z,17.39
2018-12-21T12:27:23.795Z,17.42
2018-12-21T12:29:52.553Z,17.43
2018-12-21T12:32:21.854Z,17.44
2018-12-21T12:34:49.999Z,17.44
2018-12-21T12:37:18.518Z,17.46
2018-12-21T12:39:59.272Z,17.46
2018-12-21T12:42:27.448Z,17.44
2018-12-21T12:44:56.433Z,17.45
2018-12-21T12:47:24.832Z,17.46
2018-12-21T12:49:53.078Z,17.49
2018-12-21T12:52:21.598Z,17.53
2018-12-21T12:54:49.940Z,17.55
2018-12-21T12:57:18.064Z,17.57
2018-12-21T12:59:46.404Z,17.58
2018-12-21T13:02:14.592Z,17.60
2018-12-21T13:04:42.969Z,17.63
2018-12-21T13:07:11.120Z,17.66
2018-12-21T13:09:39.276Z,17.69
2018-12-21T13:12:07.421Z,17.71
2018-12-21T13:14:35.915Z,17.74
2018-12-21T13:17:04.070Z,17.73
2018-12-21T13:19:32.288Z,17.74
2018-12-21T13:22:02.467Z,17.75
2018-12-21T13:24:30.978Z,17.74
2018-12-21T13:26:59.095Z,17.74
2018-12-21T13:29:27.273Z,17.73
2018-12-21T13:31:56.428Z,17.72
2018-12-21T13:34:25.009Z,17.70
2018-12-21T13:36:53.297Z,17.69
2018-12-21T13:39:27.123Z,17.65
2018-12-21T13:41:55.213Z,17.64
2018-12-21T13:44:25.319Z,17.64
2018-12-21T13:46:55.474Z,17.64
2018-12-21T13:49:23.945Z,17.62
2018-12-21T13:51:56.375Z,17.63
2018-12-21T13:54:25.746Z,17.62
2018-12-21T13:56:56.755Z,17.61
2018-12-21T13:59:26.194Z,17.60
2018-12-21T14:01:55.669Z,17.60
2018-12-21T14:04:32.001Z,17.60
2018-12-21T14:07:00.175Z,17.58
2018-12-21T14:09:28.460Z,17.57
2018-12-21T14:11:58.203Z,17.56
2018-12-21T14:14:27.140Z,17.55
2018-12-21T14:16:55.416Z,17.52
2018-12-21T14:19:23.835Z,17.52
2018-12-21T14:21:52.151Z,17.51
2018-12-21T14:24:20.325Z,17.49
2018-12-21T14:26:48.502Z,17.49
2018-12-21T14:29:16.765Z,17.47
2018-12-21T14:32:10.861Z,17.45
2018-12-21T14:34:48.869Z,17.40
2018-12-21T14:37:17.077Z,17.37
2018-12-21T14:39:45.404Z,17.38
2018-12-21T14:42:13.574Z,17.40
2018-12-21T14:44:42.730Z,17.41
2018-12-21T14:47:10.993Z,17.42
2018-12-21T14:49:40.119Z,17.41
2018-12-21T14:52:08.538Z,17.42
2018-12-21T14:54:37.296Z,17.42
2018-12-21T14:57:07.807Z,17.44
2018-12-21T14:59:36.169Z,17.42
2018-12-21T15:02:05.479Z,17.38
2018-12-21T15:04:33.772Z,17.33
2018-12-21T15:07:01.912Z,17.26
2018-12-21T15:09:32.070Z,17.19
2018-12-21T15:12:00.350Z,17.12
2018-12-21T15:14:29.427Z,17.08
2018-12-21T15:16:58.583Z,17.02
2018-12-21T15:19:27.374Z,16.99
2018-12-21T15:21:57.361Z,16.90
2018-12-21T15:24:25.731Z,16.85
2018-12-21T15:26:53.989Z,16.81
2018-12-21T15:29:28.728Z,16.75
2018-12-21T15:31:57.331Z,16.72
2018-12-21T15:34:26.551Z,16.68
2018-12-21T15:36:56.312Z,16.66
2018-12-21T15:45:40.488Z,16.40
2018-12-21T15:51:37.006Z,16.27
2018-12-21T15:54:05.063Z,16.24
2018-12-21T15:56:34.168Z,16.24
2018-12-21T15:59:02.317Z,16.23
2018-12-21T16:01:36.824Z,16.22
2018-12-21T16:04:00.501Z,16.21
2018-12-21T16:06:28.603Z,16.21
2018-12-21T16:08:56.663Z,16.21
2018-12-21T16:11:24.808Z,16.18
2018-12-21T16:13:52.883Z,16.17
2018-12-21T16:16:21.007Z,16.16
2018-12-21T16:18:49.816Z,16.14
2018-12-21T16:21:17.981Z,16.15
2018-12-21T16:23:46.059Z,16.18
2018-12-21T16:26:14.251Z,16.17
2018-12-21T16:28:42.317Z,16.20
2018-12-21T16:31:10.494Z,16.18
2018-12-21T16:33:38.565Z,16.19
2018-12-21T16:36:06.639Z,16.18
2018-12-21T16:38:34.809Z,16.18
2018-12-21T16:41:02.923Z,16.15
2018-12-21T16:43:31.005Z,16.14
2018-12-21T16:45:59.075Z,16.09
2018-12-21T16:48:27.148Z,16.09
2018-12-21T16:50:55.253Z,16.06
2018-12-21T16:53:23.374Z,16.04
2018-12-21T16:55:51.418Z,16.04
2018-12-21T16:58:19.490Z,16.04
2018-12-21T17:00:47.559Z,16.02
2018-12-21T17:03:15.968Z,16.01
2018-12-21T17:05:44.103Z,16.00
2018-12-21T17:08:12.306Z,15.98
2018-12-21T17:10:42.407Z,15.96
2018-12-21T17:13:11.639Z,15.94
2018-12-21T17:15:39.739Z,15.92
2018-12-21T17:18:07.884Z,15.91
2018-12-21T17:20:35.953Z,15.91
2018-12-21T17:23:04.193Z,15.89
2018-12-21T17:25:32.556Z,15.91
2018-12-21T17:28:00.687Z,15.92
2018-12-21T17:30:28.770Z,15.91
2018-12-21T17:32:56.916Z,15.92
2018-12-21T17:35:24.990Z,15.92
2018-12-21T17:37:53.058Z,15.92
2018-12-21T17:40:21.123Z,15.93
2018-12-21T17:42:49.230Z,15.92
2018-12-21T17:45:17.998Z,15.92
2018-12-21T17:47:46.311Z,15.91
2018-12-21T17:50:14.395Z,15.90
2018-12-21T17:52:42.498Z,15.90
2018-12-21T17:55:10.604Z,15.90
2018-12-21T17:57:38.871Z,15.89
2018-12-21T18:00:14.757Z,15.88
2018-12-21T18:02:44.651Z,15.87
2018-12-21T18:05:13.158Z,15.88
2018-12-21T18:07:42.176Z,15.87
2018-12-21T18:10:12.016Z,15.89
2018-12-21T18:12:40.163Z,15.89
2018-12-21T18:15:09.459Z,15.89
2018-12-21T18:17:37.677Z,15.90
2018-12-21T18:20:10.529Z,15.88
2018-12-21T18:22:38.822Z,15.85
2018-12-21T18:25:12.394Z,15.87
2018-12-21T18:27:40.986Z,15.84
2018-12-21T18:30:17.962Z,15.82
2018-12-21T18:32:46.102Z,15.81
2018-12-21T18:35:14.295Z,15.82
2018-12-21T18:37:46.981Z,15.82
2018-12-21T18:40:15.134Z,15.84
2018-12-21T18:42:43.280Z,15.83
2018-12-21T18:45:11.674Z,15.86
2018-12-21T18:47:40.721Z,15.85
2018-12-21T18:50:11.469Z,15.88
2018-12-21T18:52:40.737Z,15.88
2018-12-21T18:55:14.238Z,15.90
2018-12-21T18:57:42.511Z,15.91
2018-12-21T19:00:13.909Z,15.93
2018-12-21T19:02:45.825Z,15.94
2018-12-21T19:05:14.509Z,15.95
2018-12-21T19:07:43.818Z,15.96
2018-12-21T19:10:11.949Z,15.96
2018-12-21T19:12:40.094Z,15.97
2018-12-21T19:15:10.158Z,15.97
2018-12-21T19:17:38.482Z,15.97
2018-12-21T19:20:11.176Z,15.96
2018-12-21T19:22:43.618Z,15.94
2018-12-21T19:25:13.272Z,15.89
2018-12-21T19:27:43.074Z,15.83
2018-12-21T19:30:12.570Z,15.77
2018-12-21T19:32:40.878Z,15.73
2018-12-21T19:35:11.789Z,15.71
2018-12-21T19:37:42.110Z,15.67
2018-12-21T19:40:23.783Z,15.66
2018-12-21T19:42:52.545Z,15.64
2018-12-21T19:45:21.570Z,15.60
2018-12-21T19:47:53.146Z,15.57
2018-12-21T19:50:22.427Z,15.52
2018-12-21T19:52:51.143Z,15.52
2018-12-21T20:01:14.003Z,15.40
2018-12-21T20:03:43.278Z,15.39
2018-12-21T20:06:11.368Z,15.39
2018-12-21T20:08:39.445Z,15.39
2018-12-21T20:11:08.006Z,15.38
2018-12-21T20:13:36.075Z,15.38
2018-12-21T20:16:04.227Z,15.39
2018-12-21T20:18:32.390Z,15.38
2018-12-21T20:21:00.488Z,15.39
2018-12-21T20:23:28.606Z,15.39
2018-12-21T20:25:56.939Z,15.42
2018-12-21T20:28:25.157Z,15.39
2018-12-21T20:30:53.344Z,15.38
2018-12-21T20:33:21.434Z,15.35
2018-12-21T20:35:49.543Z,15.36
2018-12-21T20:38:21.478Z,15.35
2018-12-21T20:40:47.713Z,15.33
2018-12-21T20:43:15.774Z,15.34
2018-12-21T20:45:43.850Z,15.32
2018-12-21T20:48:11.924Z,15.31
2018-12-21T20:50:41.129Z,15.30
2018-12-21T20:53:09.203Z,15.29
2018-12-21T20:55:37.281Z,15.27
2018-12-21T20:58:06.289Z,15.24
2018-12-21T21:00:34.356Z,15.21
2018-12-21T21:03:02.575Z,15.22
2018-12-21T21:05:30.638Z,15.20
2018-12-21T21:07:58.800Z,15.20
2018-12-21T21:10:27.022Z,15.20
2018-12-21T21:12:55.164Z,15.19
2018-12-21T21:15:23.232Z,15.19
2018-12-21T21:17:51.328Z,15.18
2018-12-21T21:20:19.423Z,15.17
2018-12-21T21:22:47.482Z,15.19
2018-12-21T21:25:15.600Z,15.17
2018-12-21T21:27:43.646Z,15.17
2018-12-21T21:30:15.841Z,15.14
2018-12-21T21:32:43.898Z,15.13
2018-12-21T21:35:12.043Z,15.12
2018-12-21T21:37:40.098Z,15.10
2018-12-21T21:40:15.033Z,15.10
2018-12-21T21:42:43.357Z,15.07
2018-12-21T21:45:11.543Z,15.06
2018-12-21T21:47:39.652Z,15.03
2018-12-21T21:50:11.402Z,15.06
2018-12-21T21:52:39.995Z,15.04
2018-12-21T21:55:08.281Z,15.03
2018-12-21T21:57:39.497Z,15.02
2018-12-21T22:02:48.320Z,15.00
2018-12-21T22:05:16.521Z,15.02
2018-12-21T22:07:44.579Z,15.03
2018-12-21T22:10:13.451Z,15.02
2018-12-21T22:12:41.739Z,15.04
2018-12-21T22:15:09.847Z,15.06
2018-12-21T22:17:37.992Z,15.08
2018-12-21T22:20:08.468Z,15.07
2018-12-21T22:22:36.536Z,15.08
2018-12-21T22:25:04.815Z,15.07
2018-12-21T22:27:32.874Z,15.09
2018-12-21T22:30:01.014Z,15.10
2018-12-21T22:32:29.084Z,15.11
2018-12-21T22:34:57.160Z,15.13
2018-12-21T22:37:25.231Z,15.13
2018-12-21T22:39:53.380Z,15.10
2018-12-21T22:42:21.493Z,15.12
2018-12-21T22:44:49.650Z,15.13
2018-12-21T22:47:17.806Z,15.13
2018-12-21T22:49:45.907Z,15.13
2018-12-21T22:52:14.016Z,15.13
2018-12-21T22:54:42.075Z,15.10
2018-12-21T22:57:10.150Z,15.12
2018-12-21T22:59:38.219Z,15.11
2018-12-21T23:02:06.310Z,15.10
2018-12-21T23:04:34.421Z,15.10
2018-12-21T23:07:02.490Z,15.11
2018-12-21T23:09:30.557Z,15.11
2018-12-21T23:11:58.628Z,15.09
2018-12-21T23:14:26.752Z,15.09
2018-12-21T23:16:54.856Z,15.09
2018-12-21T23:19:22.995Z,15.08
2018-12-21T23:21:51.062Z,15.09
2018-12-21T23:24:19.164Z,15.10
2018-12-21T23:26:47.231Z,15.10
2018-12-21T23:29:15.289Z,15.11
2018-12-21T23:31:43.742Z,15.09
2018-12-21T23:34:11.868Z,15.06
2018-12-21T23:36:39.934Z,15.06
2018-12-21T23:39:07.996Z,15.06
2018-12-21T23:41:36.064Z,15.06
2018-12-21T23:44:04.202Z,15.07
2018-12-21T23:46:32.295Z,15.05
2018-12-21T23:49:00.431Z,15.05
2018-12-21T23:51:28.506Z,15.03
2018-12-21T23:53:56.563Z,15.03
2018-12-21T23:56:24.634Z,15.03
2018-12-21T23:58:52.739Z,15.03
